Time;durP1;ratioP1;P1;durP2;ratioP2;P2;SDS_P1;SDS_P2;PMS_P1;PMS_P2;Temp;Humidity;BMP_temperature;BMP_pressure;BME280_temperature;BME280_humidity;BME280_pressure;Samples;Min_cycle;Max_cycle;Signal;HPM_P1;HPM_P2
2022/01/19 00:00:39;;;;;;;3.38;1.42;;;23.50;32.90;;;;;;5024356;28;20173;-42
2022/01/19 00:03:05;;;;;;;4.15;1.65;;;23.40;32.90;;;;;;5023080;28;20021;-43
2022/01/19 00:05:31;;;;;;;2.85;1.30;;;23.40;32.90;;;;;;5022623;28;20683;-43
2022/01/19 00:07:56;;;;;;;4.18;1.48;;;23.40;32.80;;;;;;5029969;28;20440;-42
2022/01/19 00:10:27;;;;;;;3.15;1.40;;;23.40;32.90;;;;;;5041307;28;20397;-43
2022/01/19 00:12:55;;;;;;;3.10;1.35;;;23.40;32.90;;;;;;5044583;28;20383;-42
2022/01/19 00:15:22;;;;;;;3.40;1.30;;;23.30;32.90;;;;;;5044539;28;20694;-43
2022/01/19 00:17:48;;;;;;;2.80;1.20;;;23.30;32.90;;;;;;5031063;28;20477;-43
2022/01/19 00:20:14;;;;;;;3.00;1.52;;;23.30;32.80;;;;;;5024537;28;20684;-43
2022/01/19 00:22:40;;;;;;;3.10;1.38;;;23.30;32.80;;;;;;5024537;28;20036;-41
2022/01/19 00:25:07;;;;;;;3.33;1.60;;;23.30;32.80;;;;;;5024550;28;20551;-43
2022/01/19 00:27:33;;;;;;;3.13;1.67;;;23.30;32.80;;;;;;5024406;28;20036;-42
2022/01/19 00:29:59;;;;;;;2.60;1.25;;;23.30;32.80;;;;;;5023985;28;20056;-42
2022/01/19 00:32:26;;;;;;;2.60;1.40;;;23.30;32.70;;;;;;5024462;28;20057;-42
2022/01/19 00:34:51;;;;;;;3.00;1.45;;;23.30;32.70;;;;;;5024781;28;20025;-42
2022/01/19 00:37:17;;;;;;;3.03;1.48;;;23.30;33.40;;;;;;5024656;28;20043;-44
2022/01/19 00:39:43;;;;;;;3.60;1.70;;;23.30;32.70;;;;;;5024328;28;20084;-42
2022/01/19 00:42:09;;;;;;;3.20;1.60;;;23.30;32.70;;;;;;5024481;28;20036;-42
2022/01/19 00:44:35;;;;;;;3.20;1.40;;;23.20;32.60;;;;;;5031809;28;20053;-43
2022/01/19 00:47:01;;;;;;;3.08;1.50;;;23.20;32.60;;;;;;5036229;28;20867;-41
2022/01/19 00:49:26;;;;;;;3.00;1.33;;;23.20;32.60;;;;;;5035739;28;20104;-42
2022/01/19 00:51:52;;;;;;;3.22;1.55;;;23.20;32.60;;;;;;5041293;28;20029;-42
2022/01/19 00:54:18;;;;;;;3.22;1.55;;;23.20;32.60;;;;;;5038516;28;20026;-43
2022/01/19 00:56:44;;;;;;;3.50;1.90;;;23.20;32.60;;;;;;5041129;28;20167;-43
2022/01/19 00:59:09;;;;;;;3.70;1.80;;;23.10;32.60;;;;;;5044439;28;20060;-43
2022/01/19 01:01:35;;;;;;;3.40;1.38;;;23.20;32.60;;;;;;5042981;28;20128;-42
2022/01/19 01:04:01;;;;;;;3.70;1.80;;;23.10;32.60;;;;;;5044218;28;20479;-42
2022/01/19 01:06:27;;;;;;;3.40;1.80;;;23.10;32.60;;;;;;5042138;28;20025;-43
2022/01/19 01:08:52;;;;;;;3.05;1.52;;;23.10;32.60;;;;;;5042954;28;20104;-42
2022/01/19 01:11:28;;;;;;;3.05;1.42;;;23.10;32.50;;;;;;5044177;28;20469;-42
2022/01/19 01:19:44;;;;;;;3.80;1.50;;;23.10;32.50;;;;;;5010951;28;20041;-43
2022/01/19 01:22:10;;;;;;;4.07;1.90;;;23.10;32.50;;;;;;5023300;28;20683;-43
2022/01/19 01:24:35;;;;;;;3.15;1.70;;;23.10;32.40;;;;;;5024875;28;20045;-43
2022/01/19 01:27:01;;;;;;;2.45;1.17;;;23.10;32.40;;;;;;5022098;28;20502;-43
2022/01/19 01:29:27;;;;;;;2.83;1.27;;;23.10;32.40;;;;;;5024502;28;20029;-43
2022/01/19 01:31:53;;;;;;;2.97;1.35;;;23.00;32.40;;;;;;5020490;28;20037;-43
2022/01/19 01:34:18;;;;;;;3.35;1.63;;;23.00;32.40;;;;;;5019342;28;20401;-42
2022/01/19 01:36:44;;;;;;;3.03;1.67;;;23.00;32.40;;;;;;5023502;28;20037;-43
2022/01/19 01:39:10;;;;;;;2.78;1.30;;;23.00;32.40;;;;;;5022723;28;20405;-42
2022/01/19 01:41:35;;;;;;;2.90;1.38;;;23.00;32.40;;;;;;5023614;28;20080;-44
2022/01/19 01:44:01;;;;;;;3.25;1.45;;;23.00;32.30;;;;;;5023165;28;20103;-44
2022/01/19 01:46:40;;;;;;;2.85;1.33;;;23.00;32.30;;;;;;5024127;28;20030;-43
2022/01/19 01:49:13;;;;;;;2.63;1.50;;;23.00;32.30;;;;;;5023767;28;20026;-43
2022/01/19 01:54:23;;;;;;;3.10;1.48;;;22.90;32.20;;;;;;5023994;28;20033;-44
2022/01/19 01:56:48;;;;;;;2.60;1.30;;;22.90;32.20;;;;;;5023633;28;20022;-43
2022/01/19 01:59:14;;;;;;;3.70;1.65;;;22.90;32.20;;;;;;5024028;28;20034;-43
2022/01/19 02:01:41;;;;;;;4.40;1.42;;;22.90;32.20;;;;;;5023700;28;20265;-43
2022/01/19 02:04:07;;;;;;;3.60;1.90;;;22.80;32.20;;;;;;5023506;28;20041;-43
2022/01/19 02:06:40;;;;;;;4.00;1.58;;;22.80;32.20;;;;;;5018012;28;20022;-43
2022/01/19 02:09:11;;;;;;;3.35;1.52;;;22.80;32.20;;;;;;5023058;28;20030;-44
2022/01/19 02:23:10;;;;;;;2.85;1.35;;;22.80;32.60;;;;;;5023220;28;20165;-42
2022/01/19 02:25:41;;;;;;;2.47;1.30;;;22.80;32.60;;;;;;5022249;28;20481;-43
2022/01/19 02:41:38;;;;;;;3.50;1.77;;;22.70;32.70;;;;;;5026837;28;20064;-44
2022/01/19 02:44:05;;;;;;;3.05;1.35;;;22.70;32.70;;;;;;5006879;28;20053;-42
2022/01/19 02:49:19;;;;;;;3.33;1.30;;;22.70;32.70;;;;;;5026598;28;20568;-43
2022/01/19 02:51:51;;;;;;;3.22;1.48;;;22.60;32.60;;;;;;5026912;28;20029;-44
2022/01/19 02:54:20;;;;;;;2.75;1.33;;;22.60;32.70;;;;;;5025311;28;20049;-43
2022/01/19 02:56:50;;;;;;;3.00;1.30;;;22.60;32.60;;;;;;5026677;28;20022;-43
2022/01/19 02:59:23;;;;;;;2.97;1.33;;;22.60;32.60;;;;;;5026275;28;20029;-43
2022/01/19 03:10:11;;;;;;;3.10;1.50;;;22.60;32.70;;;;;;5027077;28;20518;-43
2022/01/19 03:12:37;;;;;;;2.70;1.15;;;22.60;32.70;;;;;;5026408;28;20026;-44
2022/01/19 03:15:04;;;;;;;2.83;1.45;;;22.60;32.70;;;;;;5026383;28;20542;-43
2022/01/19 03:17:30;;;;;;;2.63;1.25;;;22.60;33.40;;;;;;5026083;28;20096;-43
2022/01/19 03:19:55;;;;;;;2.80;1.30;;;22.60;32.70;;;;;;5026181;28;20140;-43
2022/01/19 03:22:27;;;;;;;2.75;1.40;;;22.60;32.70;;;;;;5026069;28;20025;-43
2022/01/19 03:24:53;;;;;;;2.92;1.40;;;22.60;32.70;;;;;;5026317;28;20549;-43
2022/01/19 03:27:19;;;;;;;2.33;1.10;;;22.60;32.70;;;;;;5025314;28;20030;-44
2022/01/19 03:29:45;;;;;;;2.90;1.35;;;22.60;32.70;;;;;;5026116;28;20687;-41
2022/01/19 03:32:12;;;;;;;3.08;1.42;;;22.60;32.70;;;;;;5025381;28;20248;-42
2022/01/19 03:34:39;;;;;;;3.20;1.77;;;22.50;32.70;;;;;;5025566;28;20477;-44
2022/01/19 03:37:05;;;;;;;2.83;1.10;;;22.50;32.70;;;;;;5025687;28;20029;-44
2022/01/19 03:39:31;;;;;;;2.58;1.30;;;22.50;32.70;;;;;;5025797;28;20030;-43
2022/01/19 03:41:57;;;;;;;3.00;1.67;;;22.50;32.70;;;;;;5026216;28;20029;-43
2022/01/19 03:44:23;;;;;;;2.67;1.38;;;22.50;32.70;;;;;;5024961;28;20033;-43
2022/01/19 03:46:57;;;;;;;2.33;1.13;;;22.50;32.70;;;;;;5024835;28;20029;-44
2022/01/19 03:49:25;;;;;;;3.38;1.52;;;22.50;32.70;;;;;;5025316;28;20029;-43
2022/01/19 03:51:58;;;;;;;3.00;1.52;;;22.50;32.70;;;;;;5025558;28;20022;-44
2022/01/19 03:54:25;;;;;;;2.60;1.33;;;22.50;32.70;;;;;;5025190;28;20030;-43
2022/01/19 03:56:51;;;;;;;3.63;1.65;;;22.50;32.70;;;;;;5025230;28;20025;-44
2022/01/19 03:59:16;;;;;;;2.47;1.20;;;22.50;32.70;;;;;;5024666;28;20358;-44
2022/01/19 04:01:42;;;;;;;2.70;1.08;;;22.50;32.70;;;;;;5024235;28;20033;-44
2022/01/19 04:07:14;;;;;;;2.42;1.20;;;22.40;32.60;;;;;;5021961;28;20068;-43
2022/01/19 04:09:42;;;;;;;2.53;1.30;;;22.50;32.70;;;;;;5022348;28;20037;-44
2022/01/19 04:12:12;;;;;;;2.30;1.15;;;22.40;32.60;;;;;;5023703;28;20033;-43
2022/01/19 04:14:38;;;;;;;4.25;1.70;;;22.40;32.60;;;;;;5025371;28;20064;-43
2022/01/19 04:17:06;;;;;;;2.15;0.93;;;22.40;32.60;;;;;;5024586;28;20053;-44
2022/01/19 04:19:44;;;;;;;2.95;1.30;;;22.40;32.60;;;;;;5024906;28;20103;-43
2022/01/19 04:22:17;;;;;;;2.88;1.30;;;22.40;32.60;;;;;;5025371;28;20042;-43
2022/01/19 04:24:43;;;;;;;2.42;1.08;;;22.40;32.60;;;;;;5025171;28;20026;-43
2022/01/19 04:29:51;;;;;;;2.78;1.40;;;22.40;32.60;;;;;;5025289;28;20048;-43
2022/01/19 04:32:22;;;;;;;2.13;1.00;;;22.40;32.60;;;;;;5024261;28;20028;-44
2022/01/19 04:34:49;;;;;;;2.67;1.00;;;22.40;32.60;;;;;;5025253;28;20741;-43
2022/01/19 04:44:04;;;;;;;2.92;1.20;;;22.30;32.60;;;;;;5024760;28;20021;-43
2022/01/19 05:07:36;;;;;;;3.00;1.30;;;22.20;32.50;;;;;;5021758;28;20025;-43
2022/01/19 05:15:31;;;;;;;2.05;1.10;;;22.20;32.90;;;;;;5022782;28;20024;-43
2022/01/19 05:17:57;;;;;;;2.88;1.27;;;22.20;33.30;;;;;;5022886;28;20029;-42
2022/01/19 05:20:23;;;;;;;3.30;1.83;;;22.20;33.60;;;;;;5023176;28;20033;-43
2022/01/19 05:22:48;;;;;;;2.80;1.33;;;22.30;33.90;;;;;;5019161;28;20115;-42
2022/01/19 05:25:14;;;;;;;3.55;1.42;;;22.30;34.20;;;;;;5020299;28;20459;-44
2022/01/19 05:27:40;;;;;;;2.88;1.60;;;22.30;34.00;;;;;;5022637;28;20024;-42
2022/01/19 05:30:06;;;;;;;3.20;1.50;;;22.30;34.10;;;;;;5021965;28;20029;-43
2022/01/19 05:32:32;;;;;;;2.80;1.40;;;22.30;34.40;;;;;;5019718;28;20637;-43
2022/01/19 05:34:57;;;;;;;3.65;1.60;;;22.30;34.30;;;;;;5004292;28;20029;-43
2022/01/19 05:37:23;;;;;;;3.50;1.58;;;22.40;34.10;;;;;;5020807;28;20033;-43
2022/01/19 05:39:49;;;;;;;3.00;1.38;;;22.40;34.30;;;;;;5020899;28;20445;-43
2022/01/19 05:42:16;;;;;;;3.50;1.55;;;22.40;33.50;;;;;;5022291;28;20021;-43
2022/01/19 05:44:43;;;;;;;2.78;1.42;;;22.40;33.40;;;;;;5022731;28;20072;-43
2022/01/19 05:47:11;;;;;;;3.30;1.40;;;22.40;33.50;;;;;;5020612;28;20021;-42
2022/01/19 05:49:38;;;;;;;4.25;2.13;;;22.50;33.70;;;;;;5022721;28;20535;-43
2022/01/19 05:52:05;;;;;;;4.60;1.88;;;22.50;33.70;;;;;;5020791;28;20045;-43
2022/01/19 05:54:31;;;;;;;5.72;2.15;;;22.40;33.50;;;;;;5021777;28;20033;-43
2022/01/19 05:56:57;;;;;;;4.18;1.60;;;22.50;33.50;;;;;;5021528;28;20017;-43
2022/01/19 05:59:23;;;;;;;3.35;1.65;;;22.50;33.40;;;;;;5023612;28;20666;-42
2022/01/19 06:01:48;;;;;;;4.93;1.70;;;22.60;33.30;;;;;;5022280;28;20021;-42
2022/01/19 06:04:14;;;;;;;4.25;1.60;;;22.60;33.50;;;;;;5021603;28;20086;-43
2022/01/19 06:06:40;;;;;;;4.38;1.42;;;22.70;33.50;;;;;;5027368;28;20022;-43
2022/01/19 06:09:20;;;;;;;3.72;1.35;;;22.70;33.50;;;;;;5027528;28;20030;-43
2022/01/19 06:11:46;;;;;;;2.97;1.00;;;22.80;33.40;;;;;;5028039;28;20457;-43
2022/01/19 06:14:12;;;;;;;2.55;1.23;;;22.80;33.40;;;;;;5027741;28;20040;-43
2022/01/19 06:16:39;;;;;;;3.65;1.67;;;22.90;33.40;;;;;;5025805;28;20033;-43
2022/01/19 06:19:05;;;;;;;2.50;1.05;;;23.00;33.30;;;;;;5027425;28;20041;-43
2022/01/19 06:21:31;;;;;;;3.10;1.60;;;23.00;33.20;;;;;;5024758;28;20029;-43
2022/01/19 06:23:57;;;;;;;3.78;1.60;;;23.10;33.10;;;;;;5026890;28;20296;-43
2022/01/19 06:26:23;;;;;;;3.40;1.50;;;23.20;33.00;;;;;;5025846;28;20631;-43
2022/01/19 06:28:49;;;;;;;6.15;2.47;;;23.30;32.60;;;;;;5026636;28;20025;-43
2022/01/19 06:31:14;;;;;;;6.20;2.90;;;23.30;30.00;;;;;;5026708;28;20083;-42
2022/01/19 06:33:40;;;;;;;9.88;3.15;;;23.30;28.00;;;;;;5026611;28;20040;-44
2022/01/19 06:36:06;;;;;;;6.60;3.15;;;23.30;27.10;;;;;;5026050;28;20030;-44
2022/01/19 06:38:32;;;;;;;5.97;2.40;;;23.30;28.10;;;;;;5026527;28;20040;-44
2022/01/19 06:40:57;;;;;;;6.47;2.22;;;23.30;29.00;;;;;;5026879;28;20025;-44
2022/01/19 06:43:23;;;;;;;9.48;2.67;;;23.30;29.20;;;;;;5026611;28;20063;-44
2022/01/19 06:45:49;;;;;;;5.38;2.55;;;23.30;29.40;;;;;;5025392;28;20028;-45
2022/01/19 06:48:15;;;;;;;5.32;2.20;;;23.30;29.30;;;;;;5024838;28;20131;-44
2022/01/19 06:50:40;;;;;;;5.00;2.05;;;23.30;29.60;;;;;;5026815;28;20036;-43
2022/01/19 06:53:06;;;;;;;3.60;1.70;;;23.30;29.50;;;;;;5026957;28;20025;-45
2022/01/19 06:55:32;;;;;;;5.28;2.22;;;23.30;29.50;;;;;;5026319;28;20420;-43
2022/01/19 06:57:57;;;;;;;4.55;2.35;;;23.30;29.10;;;;;;5026082;28;20524;-42
2022/01/19 07:00:23;;;;;;;4.32;2.40;;;23.30;28.00;;;;;;5026292;28;20059;-43
2022/01/19 07:02:49;;;;;;;4.88;1.92;;;23.30;28.20;;;;;;5026593;28;20033;-43
2022/01/19 07:05:14;;;;;;;5.40;2.28;;;23.40;28.90;;;;;;5026575;28;20030;-43
2022/01/19 07:07:41;;;;;;;5.28;1.95;;;23.50;29.60;;;;;;5025396;28;20033;-44
2022/01/19 07:10:08;;;;;;;4.63;2.08;;;23.50;29.90;;;;;;5025617;28;20022;-43
2022/01/19 07:12:34;;;;;;;6.18;2.28;;;23.60;30.00;;;;;;5019643;28;20018;-43
2022/01/19 07:14:59;;;;;;;3.65;1.75;;;23.70;30.00;;;;;;5022056;28;20060;-44
2022/01/19 07:17:25;;;;;;;4.63;2.13;;;23.70;30.00;;;;;;5025325;28;20029;-43
2022/01/19 07:19:51;;;;;;;4.63;2.17;;;23.80;30.00;;;;;;5026475;28;20033;-43
2022/01/19 07:22:16;;;;;;;3.85;1.88;;;23.90;30.00;;;;;;5025934;28;20380;-43
2022/01/19 07:24:43;;;;;;;5.50;2.33;;;23.90;30.00;;;;;;5026113;28;20112;-43
2022/01/19 07:27:09;;;;;;;4.32;2.00;;;24.00;30.00;;;;;;5026039;28;20025;-43
2022/01/19 07:29:35;;;;;;;4.25;1.67;;;24.10;30.10;;;;;;5026008;28;20055;-44
2022/01/19 07:32:01;;;;;;;5.00;2.17;;;24.20;30.10;;;;;;5026458;28;20026;-43
2022/01/19 07:34:28;;;;;;;3.75;1.60;;;24.20;30.10;;;;;;5025453;28;20143;-43
2022/01/19 07:36:55;;;;;;;3.28;1.95;;;24.30;30.10;;;;;;5025373;28;20022;-43
2022/01/19 07:39:22;;;;;;;3.78;1.70;;;24.30;30.10;;;;;;5024884;28;20035;-41
2022/01/19 07:41:48;;;;;;;4.15;2.00;;;24.40;30.00;;;;;;5025745;28;20072;-44
2022/01/19 07:44:14;;;;;;;4.07;1.88;;;24.40;30.00;;;;;;5026325;28;20084;-43
2022/01/19 07:46:41;;;;;;;4.93;1.77;;;24.50;30.30;;;;;;5025579;28;20035;-43
2022/01/19 07:49:06;;;;;;;3.72;1.80;;;24.60;30.00;;;;;;5025490;28;20421;-43
2022/01/19 07:51:32;;;;;;;5.25;1.70;;;24.60;29.90;;;;;;5025684;28;20035;-43
2022/01/19 07:53:58;;;;;;;2.70;1.33;;;24.60;29.90;;;;;;5025261;28;20049;-44
2022/01/19 07:56:24;;;;;;;4.50;1.92;;;24.70;30.00;;;;;;5024480;28;20029;-44
2022/01/19 07:58:49;;;;;;;4.60;1.95;;;24.70;30.00;;;;;;5024802;28;20033;-44
2022/01/19 08:01:16;;;;;;;3.20;1.50;;;24.80;29.90;;;;;;5025025;28;20168;-43
2022/01/19 08:03:42;;;;;;;2.90;1.55;;;24.80;29.90;;;;;;5025452;28;20026;-43
2022/01/19 08:06:08;;;;;;;4.40;1.80;;;24.90;30.00;;;;;;5024522;28;20033;-43
2022/01/19 08:08:35;;;;;;;3.78;2.00;;;24.90;30.00;;;;;;5024520;28;20125;-42
2022/01/19 08:11:01;;;;;;;3.63;1.77;;;24.90;30.00;;;;;;5040038;28;20118;-42
2022/01/19 08:13:26;;;;;;;3.00;1.40;;;24.90;30.00;;;;;;5023863;28;20517;-42
2022/01/19 08:15:53;;;;;;;3.17;1.55;;;25.00;29.90;;;;;;5024785;28;20037;-44
2022/01/19 08:18:18;;;;;;;3.80;1.67;;;25.00;29.90;;;;;;5024483;28;20247;-44
2022/01/19 08:20:44;;;;;;;3.42;1.75;;;25.00;29.90;;;;;;5024573;28;20049;-44
2022/01/19 08:23:11;;;;;;;2.65;1.25;;;25.00;29.80;;;;;;5023111;28;20037;-43
2022/01/19 08:25:37;;;;;;;3.35;1.50;;;25.00;29.80;;;;;;5024075;28;20060;-44
2022/01/19 08:28:03;;;;;;;4.00;1.70;;;25.00;29.70;;;;;;5024208;28;20095;-44
2022/01/19 08:30:29;;;;;;;3.28;1.50;;;25.10;29.70;;;;;;5024552;28;20033;-44
2022/01/19 08:32:55;;;;;;;4.05;2.25;;;25.10;29.70;;;;;;5024513;28;20496;-44
2022/01/19 08:35:22;;;;;;;3.63;1.77;;;25.10;29.70;;;;;;5024560;28;20497;-43
2022/01/19 08:37:48;;;;;;;3.13;1.65;;;25.10;29.70;;;;;;5024020;28;20413;-43
2022/01/19 08:40:14;;;;;;;3.92;1.90;;;25.10;29.70;;;;;;5024645;28;20091;-44
2022/01/19 08:42:40;;;;;;;3.35;1.88;;;25.10;29.60;;;;;;5022535;28;20135;-43
2022/01/19 08:45:08;;;;;;;3.60;1.85;;;25.20;29.70;;;;;;5023808;28;20041;-42
2022/01/19 08:47:36;;;;;;;3.35;1.80;;;25.20;29.70;;;;;;5023877;28;20462;-43
2022/01/19 08:50:04;;;;;;;3.45;1.45;;;25.20;29.60;;;;;;5022946;28;20536;-42
2022/01/19 08:52:30;;;;;;;2.95;1.70;;;25.20;29.60;;;;;;5023673;28;20390;-44
2022/01/19 08:54:55;;;;;;;4.15;2.10;;;25.20;29.60;;;;;;5022964;28;20045;-43
2022/01/19 08:57:23;;;;;;;3.22;1.50;;;25.20;29.60;;;;;;5024164;28;20032;-43
2022/01/19 08:59:49;;;;;;;2.92;1.73;;;25.20;29.60;;;;;;5023897;28;20052;-43
2022/01/19 09:02:15;;;;;;;3.00;1.50;;;25.30;29.50;;;;;;5023916;28;20477;-44
2022/01/19 09:04:41;;;;;;;3.65;2.08;;;25.20;29.50;;;;;;5023458;28;20040;-43
2022/01/19 09:07:06;;;;;;;3.58;2.25;;;25.30;29.40;;;;;;5023536;28;20048;-44
2022/01/19 09:09:32;;;;;;;3.92;1.88;;;25.30;29.50;;;;;;5023643;28;20033;-45
2022/01/19 09:11:58;;;;;;;5.03;1.80;;;25.30;29.50;;;;;;5021865;28;20030;-42
2022/01/19 09:14:23;;;;;;;3.55;1.83;;;25.30;29.50;;;;;;5022290;28;20037;-44
2022/01/19 09:16:49;;;;;;;2.88;1.50;;;25.30;29.40;;;;;;5021575;28;20104;-42
2022/01/19 09:19:17;;;;;;;3.47;1.60;;;25.30;29.40;;;;;;5023973;28;20094;-43
2022/01/19 09:21:43;;;;;;;4.15;1.75;;;25.30;29.40;;;;;;5023931;28;20131;-43
2022/01/19 09:24:10;;;;;;;3.38;1.85;;;25.30;29.40;;;;;;5023642;28;20014;-43
2022/01/19 09:26:37;;;;;;;4.10;2.10;;;25.40;29.40;;;;;;5018534;28;20029;-44
2022/01/19 09:29:03;;;;;;;3.40;1.80;;;25.30;29.40;;;;;;5020783;28;20033;-44
2022/01/19 09:31:29;;;;;;;3.30;1.80;;;25.40;29.30;;;;;;5022903;28;20102;-44
2022/01/19 09:34:06;;;;;;;4.43;1.95;;;25.40;29.30;;;;;;5011438;28;20636;-41
2022/01/19 09:36:34;;;;;;;4.03;1.80;;;25.40;29.40;;;;;;5021457;28;20037;-44
2022/01/19 09:39:02;;;;;;;4.63;2.20;;;25.40;29.40;;;;;;5026700;28;20083;-44
2022/01/19 09:41:29;;;;;;;3.38;1.73;;;25.30;29.30;;;;;;5026964;28;20033;-44
2022/01/19 09:43:55;;;;;;;3.95;2.42;;;25.40;29.40;;;;;;5026237;28;20071;-44
2022/01/19 09:46:21;;;;;;;3.92;1.92;;;25.40;29.30;;;;;;5026669;28;20386;-44
2022/01/19 09:48:46;;;;;;;3.72;1.83;;;25.40;29.30;;;;;;5027405;28;20083;-43
2022/01/19 09:51:14;;;;;;;5.43;2.05;;;25.40;29.50;;;;;;5027356;28;20109;-43
2022/01/19 09:53:41;;;;;;;4.00;2.00;;;25.40;29.70;;;;;;5025418;28;20033;-44
2022/01/19 09:56:07;;;;;;;4.47;2.00;;;25.40;30.00;;;;;;5027156;28;20247;-43
2022/01/19 09:58:32;;;;;;;4.82;2.65;;;25.40;30.30;;;;;;5026688;28;20546;-44
2022/01/19 10:00:58;;;;;;;4.53;2.05;;;25.50;30.40;;;;;;5027244;28;20017;-41
2022/01/19 10:03:31;;;;;;;3.60;2.03;;;25.50;30.20;;;;;;5026639;28;20076;-43
2022/01/19 10:06:08;;;;;;;4.93;2.15;;;25.50;30.00;;;;;;5024458;28;20044;-43
2022/01/19 10:08:46;;;;;;;4.88;2.10;;;25.50;30.00;;;;;;5025954;28;20033;-44
2022/01/19 10:11:17;;;;;;;4.55;1.80;;;25.40;29.90;;;;;;5025942;28;20037;-44
2022/01/19 10:17:06;;;;;;;4.30;1.98;;;25.40;29.90;;;;;;5025836;28;20049;-43
2022/01/19 10:19:49;;;;;;;4.53;2.00;;;25.40;29.80;;;;;;5025794;28;20037;-43
2022/01/19 10:22:25;;;;;;;5.57;2.08;;;25.40;29.70;;;;;;5026197;28;20029;-43
2022/01/19 10:24:52;;;;;;;3.53;1.83;;;25.40;29.80;;;;;;5027674;28;20056;-42
2022/01/19 10:27:37;;;;;;;4.60;2.00;;;25.40;29.80;;;;;;5027177;28;20033;-43
2022/01/19 10:30:03;;;;;;;4.05;1.95;;;25.40;29.70;;;;;;5027470;28;20025;-43
2022/01/19 10:32:38;;;;;;;4.07;2.08;;;25.40;29.70;;;;;;5027104;28;20653;-44
2022/01/19 10:35:20;;;;;;;4.32;2.15;;;25.40;29.70;;;;;;5026004;28;20033;-42
2022/01/19 10:37:48;;;;;;;4.20;1.95;;;25.40;29.70;;;;;;5027313;28;20029;-43
2022/01/19 10:40:22;;;;;;;4.20;2.15;;;25.40;29.60;;;;;;5027481;28;20519;-43
2022/01/19 10:42:48;;;;;;;3.25;1.80;;;25.40;29.70;;;;;;5027205;28;20033;-43
2022/01/19 10:45:15;;;;;;;4.13;2.10;;;25.40;29.60;;;;;;5027661;28;20025;-43
2022/01/19 10:47:53;;;;;;;3.60;1.70;;;25.40;29.60;;;;;;5026796;28;20022;-43
2022/01/19 10:50:33;;;;;;;4.22;2.10;;;25.40;29.60;;;;;;5026078;28;20061;-42
2022/01/19 10:53:01;;;;;;;3.40;1.92;;;25.40;29.70;;;;;;5026541;28;20030;-42
2022/01/19 10:55:33;;;;;;;3.72;2.03;;;25.40;29.70;;;;;;5026914;28;20021;-43
2022/01/19 10:58:01;;;;;;;4.35;1.55;;;25.40;29.60;;;;;;5026409;28;20041;-42
2022/01/19 11:00:34;;;;;;;3.90;2.00;;;25.40;29.70;;;;;;5026702;28;20037;-43
2022/01/19 11:03:25;;;;;;;3.83;2.00;;;25.40;29.70;;;;;;5026080;28;20099;-44
2022/01/19 11:05:56;;;;;;;3.90;1.95;;;25.40;29.80;;;;;;5026108;28;20282;-42
2022/01/19 11:08:25;;;;;;;4.00;2.00;;;25.40;29.80;;;;;;5026773;28;20040;-42
2022/01/19 11:10:53;;;;;;;4.50;1.90;;;25.30;29.70;;;;;;5026599;28;20096;-43
2022/01/19 11:13:29;;;;;;;4.38;1.80;;;25.40;29.70;;;;;;5026480;28;20717;-43
2022/01/19 11:15:57;;;;;;;3.45;1.50;;;25.30;29.70;;;;;;5026283;28;20100;-44
2022/01/19 11:18:25;;;;;;;4.13;1.92;;;25.40;29.70;;;;;;5026173;28;20056;-43
2022/01/19 11:20:53;;;;;;;3.65;1.85;;;25.40;29.70;;;;;;5027116;28;20033;-42
2022/01/19 11:23:40;;;;;;;3.63;1.83;;;25.40;29.70;;;;;;5026457;28;20038;-43
2022/01/19 11:26:16;;;;;;;3.47;1.67;;;25.40;29.70;;;;;;5026485;28;20120;-44
2022/01/19 11:28:46;;;;;;;3.65;1.85;;;25.40;29.60;;;;;;5026245;28;20030;-42
2022/01/19 11:31:34;;;;;;;2.90;1.40;;;25.40;29.60;;;;;;5026434;28;20025;-44
2022/01/19 11:34:00;;;;;;;2.90;1.48;;;25.50;29.50;;;;;;5026635;28;20041;-44
2022/01/19 11:36:31;;;;;;;3.28;1.65;;;25.50;29.50;;;;;;5026107;28;20026;-43
2022/01/19 11:39:21;;;;;;;2.60;1.48;;;25.50;29.50;;;;;;5025965;28;20025;-44
2022/01/19 11:41:51;;;;;;;2.85;1.35;;;25.50;29.50;;;;;;5026166;28;20486;-43
2022/01/19 11:44:39;;;;;;;3.58;1.35;;;25.50;29.40;;;;;;5025607;28;20655;-43
2022/01/19 11:47:18;;;;;;;3.15;1.63;;;25.50;29.40;;;;;;5025206;28;20060;-43
2022/01/19 11:50:18;;;;;;;2.70;1.20;;;25.60;29.40;;;;;;5025848;28;20034;-43
2022/01/19 11:52:46;;;;;;;3.30;1.55;;;25.60;29.40;;;;;;5021728;28;20045;-43
2022/01/19 11:55:21;;;;;;;2.63;1.33;;;25.60;29.30;;;;;;5025818;28;20251;-43
2022/01/19 11:57:50;;;;;;;4.45;1.50;;;25.60;29.30;;;;;;5024248;28;20030;-43
2022/01/19 12:00:21;;;;;;;3.00;1.38;;;25.60;29.30;;;;;;5025669;28;20057;-43
2022/01/19 12:02:56;;;;;;;3.90;1.80;;;25.60;29.40;;;;;;5025395;28;20030;-41
2022/01/19 12:05:35;;;;;;;3.38;1.75;;;25.50;29.40;;;;;;5025470;28;20034;-42
2022/01/19 12:08:17;;;;;;;2.13;1.10;;;25.50;29.50;;;;;;5025191;28;20025;-41
2022/01/19 12:10:47;;;;;;;4.05;1.50;;;25.50;29.70;;;;;;5025656;28;20049;-43
2022/01/19 12:13:28;;;;;;;3.00;1.40;;;25.60;29.60;;;;;;5025415;28;20033;-43
2022/01/19 12:16:05;;;;;;;3.13;1.42;;;25.50;29.60;;;;;;5025396;28;20025;-42
2022/01/19 12:18:42;;;;;;;3.65;1.65;;;25.50;29.60;;;;;;5024899;28;20057;-42
2022/01/19 12:21:34;;;;;;;3.15;1.55;;;25.50;29.70;;;;;;5025579;28;20115;-43
2022/01/19 12:24:25;;;;;;;3.17;1.70;;;25.50;29.50;;;;;;5025074;28;20061;-43
2022/01/19 12:26:59;;;;;;;2.83;1.52;;;25.50;29.50;;;;;;5023500;28;20677;-43
2022/01/19 12:29:36;;;;;;;6.32;1.83;;;25.50;29.40;;;;;;5025263;28;20033;-44
2022/01/19 12:32:15;;;;;;;2.35;1.17;;;25.50;29.40;;;;;;5025081;28;20484;-42
2022/01/19 12:34:55;;;;;;;3.17;1.67;;;25.50;29.40;;;;;;5025066;28;20534;-43
2022/01/19 12:37:44;;;;;;;3.00;1.60;;;25.50;29.40;;;;;;5023806;28;20021;-43
2022/01/19 12:40:18;;;;;;;4.05;1.30;;;25.50;29.40;;;;;;5025117;28;20018;-43
2022/01/19 12:42:50;;;;;;;3.00;1.48;;;25.50;29.30;;;;;;5024247;28;20092;-43
2022/01/19 12:45:20;;;;;;;2.67;1.60;;;25.60;29.30;;;;;;5024876;28;20343;-44
2022/01/19 12:47:47;;;;;;;3.22;1.50;;;25.60;29.20;;;;;;5024659;28;20025;-43
2022/01/19 12:50:13;;;;;;;3.05;1.33;;;25.60;29.20;;;;;;5025315;28;20037;-43
2022/01/19 12:52:46;;;;;;;3.33;1.65;;;25.60;29.10;;;;;;5025041;28;20105;-42
2022/01/19 12:55:29;;;;;;;2.80;1.42;;;25.60;29.00;;;;;;5023534;28;20030;-43
2022/01/19 12:57:56;;;;;;;2.70;1.33;;;25.70;29.10;;;;;;5024251;28;20060;-44
2022/01/19 13:00:25;;;;;;;3.38;1.60;;;25.70;29.00;;;;;;5024391;28;20132;-42
2022/01/19 13:02:51;;;;;;;2.83;1.38;;;25.70;29.00;;;;;;5024955;28;20707;-42
2022/01/19 13:05:20;;;;;;;3.17;1.58;;;25.80;29.00;;;;;;5024241;28;20069;-44
2022/01/19 13:07:54;;;;;;;3.03;1.38;;;25.80;29.00;;;;;;5024773;28;20104;-44
2022/01/19 13:10:40;;;;;;;2.45;1.40;;;25.80;28.90;;;;;;5024297;28;20034;-43
2022/01/19 13:13:11;;;;;;;3.00;1.35;;;25.80;28.90;;;;;;5023897;28;20034;-42
2022/01/19 13:15:47;;;;;;;3.28;1.30;;;25.80;28.80;;;;;;5024072;28;20029;-42
2022/01/19 13:18:37;;;;;;;3.08;1.60;;;25.80;28.80;;;;;;5023856;28;20247;-42
2022/01/19 13:21:13;;;;;;;2.67;1.20;;;25.90;28.80;;;;;;5024551;28;20408;-43
2022/01/19 13:23:59;;;;;;;3.75;1.63;;;25.90;28.80;;;;;;5024658;28;20057;-44
2022/01/19 13:26:40;;;;;;;3.67;1.50;;;25.90;28.80;;;;;;5020085;28;20045;-42
2022/01/19 13:29:26;;;;;;;3.25;1.73;;;25.90;28.70;;;;;;5024419;28;20028;-44
2022/01/19 13:31:56;;;;;;;2.42;1.05;;;25.90;28.70;;;;;;5024439;28;20436;-42
2022/01/19 13:34:22;;;;;;;3.53;1.42;;;26.00;29.10;;;;;;5024009;28;20261;-43
2022/01/19 13:36:54;;;;;;;2.65;1.30;;;25.90;28.40;;;;;;5023833;28;20543;-41
2022/01/19 13:39:22;;;;;;;3.28;1.95;;;25.90;28.70;;;;;;5024417;28;20505;-42
2022/01/19 13:41:51;;;;;;;5.40;1.75;;;26.00;29.20;;;;;;5024270;28;20105;-43
2022/01/19 13:44:23;;;;;;;4.20;1.50;;;26.00;29.10;;;;;;5024375;28;20030;-42
2022/01/19 13:46:49;;;;;;;3.83;1.60;;;26.00;29.10;;;;;;5023381;28;20033;-44
2022/01/19 13:49:14;;;;;;;4.22;1.55;;;26.00;29.10;;;;;;5023978;28;20040;-43
2022/01/19 13:51:44;;;;;;;3.55;1.30;;;26.00;29.30;;;;;;5018408;28;20080;-43
2022/01/19 13:54:09;;;;;;;3.33;1.50;;;26.00;29.30;;;;;;5017795;28;20026;-44
2022/01/19 13:56:38;;;;;;;2.85;1.30;;;26.00;29.20;;;;;;5023510;28;20584;-42
2022/01/19 13:59:14;;;;;;;3.15;1.27;;;26.00;29.20;;;;;;5020653;28;20104;-44
2022/01/19 14:01:52;;;;;;;3.15;1.45;;;26.00;29.10;;;;;;5018150;28;20575;-44
2022/01/19 14:04:18;;;;;;;4.47;1.60;;;26.00;29.10;;;;;;5014631;28;20077;-43
2022/01/19 14:06:49;;;;;;;2.80;1.30;;;26.00;29.00;;;;;;5003973;28;20044;-43
2022/01/19 14:09:16;;;;;;;4.07;1.40;;;26.00;29.00;;;;;;5012394;28;20022;-44
2022/01/19 14:11:47;;;;;;;2.83;1.40;;;26.00;29.00;;;;;;5004756;28;20099;-43
2022/01/19 14:14:26;;;;;;;2.75;1.25;;;26.10;29.00;;;;;;5022169;28;20053;-44
2022/01/19 14:16:55;;;;;;;2.92;1.50;;;26.10;29.00;;;;;;5023162;28;20079;-43
2022/01/19 14:19:26;;;;;;;3.22;1.33;;;26.10;29.00;;;;;;5023246;28;20041;-43
2022/01/19 14:22:06;;;;;;;2.67;1.50;;;26.10;29.00;;;;;;5023642;28;20030;-42
2022/01/19 14:24:52;;;;;;;3.67;1.27;;;26.10;29.00;;;;;;5024490;28;20452;-43